Time;durP1;ratioP1;P1;durP2;ratioP2;P2;SDS_P1;SDS_P2;PMS_P1;PMS_P2;Temp;Humidity;BMP_temperature;BMP_pressure;BME280_temperature;BME280_humidity;BME280_pressure;Samples;Min_cycle;Max_cycle;Signal;HPM_P1;HPM_P2
2023/03/19 00:01:22;;;;;;;14.50;7.88;;;8.90;99.90;;;;;;5037180;28;20067;-69
2023/03/19 00:03:48;;;;;;;14.57;7.93;;;8.60;99.90;;;;;;5041260;28;20119;-66
2023/03/19 00:06:13;;;;;;;12.20;7.43;;;8.80;99.90;;;;;;5041290;28;21089;-67
2023/03/19 00:08:39;;;;;;;15.85;7.22;;;9.00;99.90;;;;;;5035281;28;20083;-67
2023/03/19 00:11:06;;;;;;;14.32;7.50;;;8.40;99.90;;;;;;5042564;28;20128;-68
2023/03/19 00:13:32;;;;;;;15.35;7.97;;;8.70;99.90;;;;;;5034400;28;20045;-67
2023/03/19 00:15:57;;;;;;;11.05;6.07;;;8.60;99.90;;;;;;5033740;28;20037;-67
2023/03/19 00:18:23;;;;;;;14.02;7.38;;;8.40;99.90;;;;;;5036231;28;20150;-66
2023/03/19 00:20:49;;;;;;;13.18;6.78;;;9.00;99.90;;;;;;5043970;28;20049;-69
2023/03/19 00:23:15;;;;;;;11.68;6.50;;;8.90;99.90;;;;;;5041411;28;20083;-66
2023/03/19 00:25:41;;;;;;;14.95;7.40;;;8.50;99.90;;;;;;5041042;28;20481;-67
2023/03/19 00:28:06;;;;;;;14.10;7.82;;;8.60;99.90;;;;;;5018898;28;20048;-68
2023/03/19 00:30:32;;;;;;;14.95;7.20;;;8.90;99.90;;;;;;5010850;28;20041;-68
2023/03/19 00:32:58;;;;;;;10.70;6.85;;;8.60;99.90;;;;;;5017172;28;20106;-67
2023/03/19 00:35:24;;;;;;;12.65;6.88;;;9.10;99.90;;;;;;5028337;28;20076;-67
2023/03/19 00:37:49;;;;;;;12.25;7.28;;;8.80;99.90;;;;;;5048289;28;20075;-69
2023/03/19 00:40:15;;;;;;;12.48;7.05;;;8.70;99.90;;;;;;5033648;28;20050;-67
2023/03/19 00:42:43;;;;;;;12.40;6.70;;;8.60;99.90;;;;;;5040492;28;20033;-67
2023/03/19 00:45:09;;;;;;;13.80;6.97;;;8.60;99.90;;;;;;5038693;28;20124;-67
2023/03/19 00:47:35;;;;;;;12.10;6.57;;;9.10;99.90;;;;;;5040969;28;20037;-67
2023/03/19 00:50:02;;;;;;;12.98;6.43;;;9.00;99.90;;;;;;5027514;28;20044;-68
2023/03/19 00:52:28;;;;;;;14.15;7.57;;;9.10;99.90;;;;;;5043225;28;20124;-67
2023/03/19 00:54:53;;;;;;;10.90;6.28;;;9.10;99.90;;;;;;5039472;28;20035;-68
2023/03/19 00:57:19;;;;;;;15.90;8.15;;;9.20;99.90;;;;;;5042868;28;20057;-67
2023/03/19 00:59:45;;;;;;;13.25;6.97;;;8.80;99.90;;;;;;5035192;28;20045;-67
2023/03/19 01:02:10;;;;;;;14.35;7.07;;;8.60;99.90;;;;;;5041098;28;20124;-68
2023/03/19 01:04:36;;;;;;;17.20;7.88;;;8.70;99.90;;;;;;5044316;28;20403;-67
2023/03/19 01:07:01;;;;;;;12.80;7.47;;;8.50;99.90;;;;;;5041609;28;20044;-68
2023/03/19 01:09:27;;;;;;;12.48;6.95;;;9.00;99.90;;;;;;5041089;28;20047;-67
2023/03/19 01:11:52;;;;;;;14.20;7.53;;;9.00;99.90;;;;;;5045354;28;20091;-67
2023/03/19 01:14:18;;;;;;;17.10;8.38;;;9.10;99.90;;;;;;5037740;28;20033;-68
2023/03/19 01:16:44;;;;;;;14.73;7.35;;;8.80;99.90;;;;;;5051261;28;20761;-67
2023/03/19 01:19:11;;;;;;;15.55;8.05;;;9.40;99.90;;;;;;5042071;28;20048;-69
2023/03/19 01:21:36;;;;;;;12.13;7.03;;;8.80;99.90;;;;;;5042365;28;20037;-67
2023/03/19 01:24:02;;;;;;;13.93;7.20;;;8.90;99.90;;;;;;5040055;28;20394;-66
2023/03/19 01:26:28;;;;;;;16.38;7.57;;;9.40;99.90;;;;;;5050279;28;20087;-67
2023/03/19 01:28:53;;;;;;;13.68;7.57;;;8.90;99.90;;;;;;5046784;28;20048;-69
2023/03/19 01:31:19;;;;;;;15.02;7.15;;;8.90;99.90;;;;;;5032891;28;20053;-66
2023/03/19 01:33:45;;;;;;;15.80;7.38;;;9.50;99.90;;;;;;5050501;28;20129;-66
2023/03/19 01:36:11;;;;;;;16.05;7.88;;;9.50;99.90;;;;;;5039007;28;20037;-69
2023/03/19 01:38:36;;;;;;;15.18;7.60;;;9.00;99.90;;;;;;5044405;28;20087;-69
2023/03/19 01:41:02;;;;;;;15.80;7.50;;;9.10;99.90;;;;;;5026271;28;20630;-68
2023/03/19 01:43:31;;;;;;;14.07;7.75;;;9.00;99.90;;;;;;5036366;28;20151;-67
2023/03/19 01:46:22;;;;;;;14.30;7.93;;;9.50;99.90;;;;;;5045642;28;20047;-67
2023/03/19 01:48:56;;;;;;;13.07;6.63;;;9.00;99.90;;;;;;5038899;28;20469;-67
2023/03/19 01:51:27;;;;;;;12.43;7.18;;;9.50;99.90;;;;;;5041744;28;20048;-67
2023/03/19 01:53:56;;;;;;;12.07;7.05;;;9.20;99.90;;;;;;5041025;28;20048;-66
2023/03/19 01:56:33;;;;;;;11.25;7.05;;;9.60;99.90;;;;;;5040111;28;21094;-67
2023/03/19 01:59:21;;;;;;;10.63;6.82;;;9.30;99.90;;;;;;5036308;28;20458;-67
2023/03/19 02:01:55;;;;;;;12.00;7.03;;;9.40;99.90;;;;;;5034988;28;20102;-70
2023/03/19 02:04:23;;;;;;;10.65;6.25;;;9.40;99.90;;;;;;5038744;28;20045;-69
2023/03/19 02:06:48;;;;;;;13.15;6.82;;;9.60;99.90;;;;;;5034941;28;20166;-70
2023/03/19 02:09:15;;;;;;;12.02;6.82;;;9.10;99.90;;;;;;5033640;28;20053;-70
2023/03/19 02:11:41;;;;;;;12.52;6.57;;;9.30;99.90;;;;;;5034534;28;20040;-71
2023/03/19 02:14:08;;;;;;;12.38;7.15;;;9.50;99.90;;;;;;5013856;28;20518;-71
2023/03/19 02:16:34;;;;;;;15.93;7.05;;;9.50;99.90;;;;;;5023110;28;20037;-71
2023/03/19 02:19:00;;;;;;;11.63;6.60;;;9.40;99.90;;;;;;5041828;28;20511;-71
2023/03/19 02:21:25;;;;;;;11.27;6.47;;;9.40;99.90;;;;;;5037873;28;20072;-73
2023/03/19 02:24:16;;;;;;;11.18;6.85;;;9.40;99.90;;;;;;5040994;28;20072;-72
2023/03/19 02:26:43;;;;;;;15.73;6.65;;;9.10;99.90;;;;;;5046872;28;20836;-72
2023/03/19 02:29:09;;;;;;;12.70;6.95;;;9.30;99.90;;;;;;5010975;28;20037;-71
2023/03/19 02:31:35;;;;;;;12.63;6.85;;;9.40;99.90;;;;;;5021869;28;20032;-70
2023/03/19 02:34:26;;;;;;;11.20;6.25;;;8.90;99.90;;;;;;5044902;28;20037;-69
2023/03/19 02:37:02;;;;;;;12.88;6.13;;;9.40;99.90;;;;;;5040064;28;20084;-71
2023/03/19 02:39:37;;;;;;;13.32;6.60;;;9.00;99.90;;;;;;5036800;28;20053;-69
2023/03/19 02:42:04;;;;;;;12.30;7.20;;;8.80;99.90;;;;;;5033335;28;20431;-69
2023/03/19 02:44:30;;;;;;;12.13;6.20;;;8.80;99.90;;;;;;5027143;28;20096;-69
2023/03/19 02:46:56;;;;;;;14.02;6.38;;;9.30;99.90;;;;;;5033601;28;20067;-69
2023/03/19 02:49:21;;;;;;;13.00;7.18;;;9.00;99.90;;;;;;5023444;28;20061;-68
2023/03/19 02:51:47;;;;;;;11.35;6.53;;;9.30;99.90;;;;;;5034972;28;20041;-68
2023/03/19 02:54:13;;;;;;;11.60;6.43;;;9.00;99.90;;;;;;5036983;28;20474;-69
2023/03/19 02:56:38;;;;;;;14.32;7.78;;;8.90;99.90;;;;;;5033359;28;20513;-68
2023/03/19 02:59:04;;;;;;;13.65;7.13;;;8.80;99.90;;;;;;5035112;28;20460;-68
2023/03/19 03:01:29;;;;;;;10.57;6.25;;;8.90;99.90;;;;;;5041842;28;20076;-69
2023/03/19 03:03:55;;;;;;;11.40;6.50;;;9.40;99.90;;;;;;5058330;28;20049;-69
2023/03/19 03:06:20;;;;;;;9.15;6.10;;;9.10;99.90;;;;;;5044122;28;20137;-68
2023/03/19 03:08:46;;;;;;;9.82;6.40;;;9.20;99.90;;;;;;5047569;28;20064;-67
2023/03/19 03:11:12;;;;;;;12.57;6.72;;;8.90;99.90;;;;;;5037046;28;20467;-68
2023/03/19 03:13:38;;;;;;;11.75;6.07;;;9.20;99.90;;;;;;5038627;28;20051;-67
2023/03/19 03:16:03;;;;;;;10.93;6.68;;;9.00;99.90;;;;;;5017911;28;20055;-67
2023/03/19 03:18:30;;;;;;;11.15;6.45;;;8.80;99.90;;;;;;5040624;28;20045;-67
2023/03/19 03:20:56;;;;;;;10.27;6.05;;;9.20;99.90;;;;;;5039245;28;20080;-68
2023/03/19 03:23:21;;;;;;;10.88;6.32;;;9.30;99.90;;;;;;5036218;28;20152;-69
2023/03/19 03:25:51;;;;;;;9.07;5.85;;;8.80;99.90;;;;;;5038142;28;20041;-68
2023/03/19 03:28:17;;;;;;;11.65;6.28;;;9.30;99.90;;;;;;5035831;28;20078;-67
2023/03/19 03:30:43;;;;;;;9.82;5.72;;;9.30;99.90;;;;;;5046148;28;20047;-67
2023/03/19 03:33:09;;;;;;;10.45;6.68;;;8.70;99.90;;;;;;5046714;28;20041;-68
2023/03/19 03:35:35;;;;;;;12.05;6.38;;;9.20;99.90;;;;;;5040397;28;20068;-68
2023/03/19 03:38:02;;;;;;;9.93;5.93;;;8.70;99.90;;;;;;5031755;28;20132;-69
2023/03/19 03:40:28;;;;;;;11.60;6.20;;;9.20;99.90;;;;;;5038598;28;20047;-68
2023/03/19 03:42:54;;;;;;;9.43;5.80;;;9.20;99.90;;;;;;5038422;28;20377;-67
2023/03/19 03:45:19;;;;;;;10.07;6.03;;;9.10;99.90;;;;;;5041479;28;20094;-68
2023/03/19 03:47:45;;;;;;;10.65;6.15;;;8.60;99.90;;;;;;5039422;28;20032;-70
2023/03/19 03:50:11;;;;;;;9.25;5.05;;;8.70;99.90;;;;;;5046257;28;20071;-67
2023/03/19 03:52:37;;;;;;;11.00;5.50;;;8.80;99.90;;;;;;5038189;28;20053;-68
2023/03/19 03:55:03;;;;;;;10.55;5.40;;;8.90;99.90;;;;;;5035985;28;20481;-68
2023/03/19 03:57:29;;;;;;;8.40;5.38;;;8.60;99.90;;;;;;5035485;28;20037;-67
2023/03/19 03:59:55;;;;;;;8.73;5.13;;;9.10;99.90;;;;;;5019653;28;20630;-68
2023/03/19 04:02:21;;;;;;;8.68;4.85;;;8.60;99.90;;;;;;5032992;28;20044;-68
2023/03/19 04:04:47;;;;;;;9.25;5.25;;;9.00;99.90;;;;;;5033982;28;20045;-68
2023/03/19 04:07:13;;;;;;;9.05;5.07;;;8.90;99.90;;;;;;5036943;28;20102;-68
2023/03/19 04:09:39;;;;;;;7.60;4.82;;;8.80;99.90;;;;;;5031829;28;20037;-69
2023/03/19 04:12:04;;;;;;;6.50;4.88;;;8.70;99.90;;;;;;5034130;28;20033;-68
2023/03/19 04:14:30;;;;;;;6.85;4.38;;;9.20;99.90;;;;;;5018031;28;20049;-66
2023/03/19 04:16:56;;;;;;;7.43;4.75;;;9.20;99.90;;;;;;5038459;28;20120;-67
2023/03/19 04:19:21;;;;;;;7.55;4.47;;;8.80;99.90;;;;;;5048672;28;20044;-68
2023/03/19 04:21:47;;;;;;;6.07;3.83;;;9.20;99.90;;;;;;5049160;28;20160;-68
2023/03/19 04:24:13;;;;;;;6.95;4.00;;;8.80;99.90;;;;;;5042397;28;20029;-66
2023/03/19 04:26:39;;;;;;;5.88;3.63;;;8.80;99.90;;;;;;5016416;28;20128;-68
2023/03/19 04:29:04;;;;;;;6.32;4.10;;;8.90;99.90;;;;;;5041921;28;20037;-68
2023/03/19 04:31:30;;;;;;;5.70;3.22;;;8.90;99.90;;;;;;5044670;28;20044;-67
2023/03/19 04:33:56;;;;;;;7.00;4.28;;;9.20;99.90;;;;;;5051378;28;20463;-68
2023/03/19 04:36:22;;;;;;;5.43;3.53;;;9.40;99.90;;;;;;5037633;28;20052;-67
2023/03/19 04:38:48;;;;;;;5.53;3.22;;;9.30;99.90;;;;;;5049686;28;20139;-68
2023/03/19 04:41:16;;;;;;;7.45;4.13;;;8.90;99.90;;;;;;5049605;28;20044;-67
2023/03/19 04:43:42;;;;;;;4.78;2.90;;;9.00;99.90;;;;;;5046865;28;20052;-67
2023/03/19 04:46:07;;;;;;;5.85;3.22;;;9.40;99.90;;;;;;5050127;28;20041;-69
2023/03/19 04:48:34;;;;;;;5.80;3.28;;;9.00;99.90;;;;;;5041036;28;20037;-66
2023/03/19 04:51:01;;;;;;;5.60;3.35;;;8.80;99.90;;;;;;5041601;28;20041;-67
2023/03/19 04:53:28;;;;;;;5.57;3.30;;;9.00;99.90;;;;;;5023887;28;20147;-67
2023/03/19 04:55:54;;;;;;;5.80;3.25;;;9.30;99.90;;;;;;5039039;28;20036;-67
2023/03/19 04:58:20;;;;;;;5.45;3.30;;;8.70;99.90;;;;;;5037287;28;20043;-68
2023/03/19 05:00:46;;;;;;;5.75;3.10;;;9.20;99.90;;;;;;5038189;28;20056;-67
2023/03/19 05:03:13;;;;;;;5.03;3.05;;;8.80;99.90;;;;;;5038228;28;20033;-68
2023/03/19 05:05:39;;;;;;;5.15;3.13;;;9.30;99.90;;;;;;5022976;28;20060;-67
2023/03/19 05:08:06;;;;;;;5.13;2.92;;;9.00;99.90;;;;;;5037410;28;20679;-68
2023/03/19 05:10:32;;;;;;;6.05;3.22;;;9.10;99.90;;;;;;5040454;28;20040;-67
2023/03/19 05:12:58;;;;;;;5.60;2.83;;;8.50;99.90;;;;;;5035792;28;20037;-66
2023/03/19 05:15:23;;;;;;;5.32;3.15;;;8.60;99.90;;;;;;5038493;28;20035;-67
2023/03/19 05:17:50;;;;;;;4.57;2.83;;;8.40;99.90;;;;;;5037323;28;20051;-68
2023/03/19 05:20:15;;;;;;;3.80;2.70;;;8.30;99.90;;;;;;5035201;28;20045;-67
2023/03/19 05:22:41;;;;;;;4.72;2.80;;;8.80;99.90;;;;;;5041171;28;20037;-66
2023/03/19 05:25:07;;;;;;;4.40;2.97;;;8.40;99.90;;;;;;5039902;28;20037;-69
2023/03/19 05:27:32;;;;;;;5.38;3.13;;;8.60;99.90;;;;;;5041801;28;20041;-67
2023/03/19 05:30:00;;;;;;;3.92;3.20;;;8.80;99.90;;;;;;5037671;28;20041;-67
2023/03/19 05:32:26;;;;;;;4.30;2.78;;;8.80;99.90;;;;;;5022002;28;20120;-67
2023/03/19 05:34:51;;;;;;;4.93;2.88;;;8.30;99.90;;;;;;5042890;28;20127;-68
2023/03/19 05:37:17;;;;;;;4.15;2.63;;;8.50;99.90;;;;;;5033069;28;20140;-68
2023/03/19 05:39:42;;;;;;;4.07;2.53;;;8.60;99.90;;;;;;5042466;28;20052;-68
2023/03/19 05:42:08;;;;;;;4.07;2.53;;;8.30;99.90;;;;;;5039596;28;20040;-67
2023/03/19 05:44:34;;;;;;;3.60;2.45;;;8.70;99.90;;;;;;5040830;28;20837;-67
2023/03/19 05:47:00;;;;;;;3.80;2.30;;;8.10;99.90;;;;;;5037567;28;20818;-68
2023/03/19 05:49:25;;;;;;;3.85;2.47;;;8.40;99.90;;;;;;5038189;28;20041;-68
2023/03/19 05:51:51;;;;;;;4.32;2.60;;;8.40;99.90;;;;;;5041158;28;20064;-68
2023/03/19 05:54:17;;;;;;;4.05;2.42;;;8.60;99.90;;;;;;5037053;28;20056;-67
2023/03/19 05:56:42;;;;;;;4.50;2.80;;;7.90;99.90;;;;;;5039398;28;20053;-66
2023/03/19 05:59:08;;;;;;;4.22;2.60;;;8.30;99.90;;;;;;5034986;28;20040;-66
2023/03/19 06:01:34;;;;;;;3.85;2.20;;;8.20;99.90;;;;;;5038198;28;20116;-67
2023/03/19 06:04:00;;;;;;;3.38;2.25;;;7.90;99.90;;;;;;5038521;28;20155;-68
2023/03/19 06:06:25;;;;;;;4.63;2.65;;;7.80;99.90;;;;;;5036506;28;20045;-67
2023/03/19 06:08:52;;;;;;;5.07;2.47;;;8.20;99.90;;;;;;5033128;28;20041;-66
2023/03/19 06:11:17;;;;;;;3.88;2.83;;;7.90;99.90;;;;;;5039108;28;20040;-68
2023/03/19 06:13:43;;;;;;;3.40;2.20;;;7.50;99.90;;;;;;5034522;28;20044;-68
2023/03/19 06:16:09;;;;;;;3.42;2.25;;;7.50;99.90;;;;;;5040915;28;20099;-67
2023/03/19 06:18:35;;;;;;;4.13;2.42;;;7.30;99.90;;;;;;5046311;28;20049;-67
2023/03/19 06:21:00;;;;;;;4.28;2.60;;;7.30;99.90;;;;;;5048136;28;20697;-69
2023/03/19 06:23:26;;;;;;;3.92;2.78;;;7.90;99.90;;;;;;5039489;28;20041;-68
2023/03/19 06:25:52;;;;;;;4.43;2.65;;;7.50;99.90;;;;;;5046901;28;20389;-68
2023/03/19 06:28:17;;;;;;;5.38;3.53;;;7.90;99.90;;;;;;5046670;28;20491;-66
2023/03/19 06:30:43;;;;;;;4.43;2.72;;;7.70;99.90;;;;;;5043543;28;20040;-67
2023/03/19 06:33:08;;;;;;;5.43;4.38;;;8.30;99.90;;;;;;5034413;28;20048;-67
2023/03/19 06:35:34;;;;;;;5.30;3.88;;;8.30;99.90;;;;;;5038114;28;20044;-67
2023/03/19 06:38:00;;;;;;;5.35;3.70;;;8.30;99.90;;;;;;5016145;28;20041;-67
2023/03/19 06:40:25;;;;;;;4.82;3.17;;;8.30;99.90;;;;;;5033035;28;20034;-67
2023/03/19 06:42:51;;;;;;;4.00;2.60;;;8.40;99.90;;;;;;5041810;28;20039;-67
2023/03/19 06:45:18;;;;;;;4.93;2.90;;;8.30;99.90;;;;;;5045698;28;20400;-67
2023/03/19 06:47:45;;;;;;;4.93;2.90;;;8.80;99.90;;;;;;5041019;28;20056;-67
2023/03/19 06:50:12;;;;;;;5.53;3.70;;;8.40;99.90;;;;;;5039326;28;20040;-69
2023/03/19 06:52:38;;;;;;;6.53;3.28;;;8.70;99.90;;;;;;5025581;28;20048;-66
2023/03/19 06:55:05;;;;;;;5.97;3.13;;;9.00;99.90;;;;;;5033609;28;20045;-67
2023/03/19 06:57:31;;;;;;;4.78;3.00;;;9.00;99.90;;;;;;5036716;28;20048;-68
2023/03/19 06:59:57;;;;;;;4.35;2.63;;;9.20;99.90;;;;;;5020581;28;20064;-68
2023/03/19 07:02:22;;;;;;;4.30;2.67;;;8.60;99.90;;;;;;5037419;28;20116;-68
2023/03/19 07:04:48;;;;;;;5.50;3.08;;;9.10;99.90;;;;;;5039836;28;20032;-66
2023/03/19 07:07:13;;;;;;;3.75;3.03;;;9.00;99.90;;;;;;5022268;28;20330;-67
2023/03/19 07:09:39;;;;;;;5.32;3.17;;;8.90;99.90;;;;;;5038105;28;20041;-67
2023/03/19 07:12:05;;;;;;;5.18;3.25;;;8.70;99.90;;;;;;5037854;28;20039;-67
2023/03/19 07:14:30;;;;;;;3.65;2.08;;;8.40;99.90;;;;;;5043626;28;20037;-67
2023/03/19 07:16:56;;;;;;;5.00;2.92;;;8.10;99.90;;;;;;5044887;28;20103;-67
2023/03/19 07:19:22;;;;;;;4.55;2.58;;;8.00;99.90;;;;;;5023550;28;20048;-67
2023/03/19 07:21:47;;;;;;;4.55;2.63;;;8.50;99.90;;;;;;5041955;28;20041;-66
2023/03/19 07:24:13;;;;;;;4.93;2.65;;;8.30;99.90;;;;;;5031814;28;20053;-68
2023/03/19 07:26:38;;;;;;;3.90;2.70;;;8.20;99.90;;;;;;5034850;28;20051;-66
2023/03/19 07:29:04;;;;;;;4.75;3.03;;;8.60;99.90;;;;;;5035808;28;20103;-66
2023/03/19 07:31:30;;;;;;;5.80;3.42;;;8.30;99.90;;;;;;5031545;28;20060;-66
2023/03/19 07:33:55;;;;;;;5.05;3.20;;;8.80;99.90;;;;;;5044414;28;20036;-66
2023/03/19 07:36:22;;;;;;;6.78;3.33;;;9.60;99.90;;;;;;5042687;28;20052;-67
2023/03/19 07:38:47;;;;;;;5.18;3.35;;;9.30;99.90;;;;;;5042346;28;20077;-68
2023/03/19 07:41:13;;;;;;;6.05;3.22;;;9.70;99.90;;;;;;5038660;28;20081;-67
2023/03/19 07:43:38;;;;;;;5.10;3.83;;;9.70;99.90;;;;;;5031402;28;20048;-68
2023/03/19 07:46:05;;;;;;;5.68;3.35;;;10.10;99.90;;;;;;5035709;28;20041;-67
2023/03/19 07:48:30;;;;;;;5.78;3.20;;;10.10;99.90;;;;;;5038506;28;20049;-67
2023/03/19 07:50:56;;;;;;;6.15;3.47;;;10.20;99.90;;;;;;5038646;28;20494;-68
2023/03/19 07:53:22;;;;;;;4.90;2.92;;;9.60;99.90;;;;;;5036625;28;20107;-66
2023/03/19 07:55:47;;;;;;;4.43;3.17;;;9.40;99.90;;;;;;5035976;28;20117;-67
2023/03/19 07:58:13;;;;;;;4.72;3.05;;;9.40;99.90;;;;;;5036444;28;20037;-68
2023/03/19 08:00:39;;;;;;;6.20;3.88;;;9.40;99.90;;;;;;5046537;28;20045;-65
2023/03/19 08:03:05;;;;;;;5.63;3.65;;;9.40;99.90;;;;;;5051432;28;20052;-66
2023/03/19 08:05:31;;;;;;;5.00;3.15;;;9.40;99.90;;;;;;5040012;28;20034;-66
2023/03/19 08:07:56;;;;;;;5.70;3.70;;;9.90;99.90;;;;;;5037817;28;20029;-67
2023/03/19 08:10:22;;;;;;;5.35;3.13;;;9.60;99.90;;;;;;5052297;28;20087;-67
2023/03/19 08:12:47;;;;;;;6.47;3.78;;;9.50;99.90;;;;;;5041269;28;20049;-67
2023/03/19 08:15:13;;;;;;;11.77;6.82;;;10.00;99.90;;;;;;5042685;28;20111;-66
2023/03/19 08:17:39;;;;;;;8.65;6.10;;;10.10;99.90;;;;;;5035226;28;20044;-67
2023/03/19 08:20:07;;;;;;;9.30;5.72;;;9.80;99.90;;;;;;5043916;28;20370;-66
2023/03/19 08:22:34;;;;;;;7.30;5.20;;;10.00;99.90;;;;;;5018433;28;20041;-68
2023/03/19 08:24:59;;;;;;;8.43;4.03;;;10.10;99.90;;;;;;5047609;28;20144;-66
2023/03/19 08:27:26;;;;;;;8.18;5.28;;;10.60;99.90;;;;;;5022012;28;20957;-66
2023/03/19 08:29:52;;;;;;;7.93;4.95;;;10.60;99.90;;;;;;5036316;28;20041;-66
2023/03/19 08:32:17;;;;;;;8.35;4.72;;;10.50;99.90;;;;;;5047980;28;20033;-65
2023/03/19 08:34:43;;;;;;;14.27;9.57;;;10.70;99.90;;;;;;5046027;28;20114;-66
2023/03/19 08:37:08;;;;;;;13.32;8.35;;;10.60;99.90;;;;;;5047739;28;20044;-66
2023/03/19 08:39:34;;;;;;;9.13;5.35;;;10.60;99.90;;;;;;5048322;28;20052;-65
2023/03/19 08:42:00;;;;;;;7.68;4.50;;;10.30;99.90;;;;;;5039448;28;20041;-66
2023/03/19 08:44:25;;;;;;;8.65;5.07;;;10.30;99.90;;;;;;5026131;28;20045;-67
2023/03/19 08:46:51;;;;;;;8.82;5.00;;;10.80;99.90;;;;;;5040287;28;20041;-66
2023/03/19 08:49:16;;;;;;;7.93;5.00;;;10.90;99.90;;;;;;5043642;28;20094;-67
2023/03/19 08:51:42;;;;;;;10.82;5.65;;;10.60;99.90;;;;;;5044471;28;20052;-66
2023/03/19 08:54:10;;;;;;;8.80;4.95;;;10.40;99.90;;;;;;5035698;28;20595;-66
2023/03/19 08:56:37;;;;;;;10.68;4.78;;;10.40;99.90;;;;;;5021665;28;20786;-66
2023/03/19 08:59:02;;;;;;;8.20;5.00;;;10.20;99.90;;;;;;5031627;28;20080;-65
2023/03/19 09:01:28;;;;;;;9.50;5.20;;;10.20;99.90;;;;;;5038709;28;20091;-66
2023/03/19 09:03:54;;;;;;;9.75;5.43;;;10.30;99.90;;;;;;5040909;28;20489;-66
2023/03/19 09:06:20;;;;;;;8.02;4.93;;;10.70;99.90;;;;;;5036678;28;20032;-67
2023/03/19 09:08:45;;;;;;;9.93;5.35;;;10.90;99.90;;;;;;5045389;28;20128;-67
2023/03/19 09:11:13;;;;;;;8.65;5.05;;;11.00;99.90;;;;;;5045437;28;22293;-67
2023/03/19 09:13:39;;;;;;;6.97;4.95;;;10.70;99.90;;;;;;5040452;28;20041;-67
2023/03/19 09:16:05;;;;;;;9.60;5.30;;;10.80;99.90;;;;;;5041581;28;20132;-67
2023/03/19 09:18:32;;;;;;;7.35;4.43;;;10.90;99.90;;;;;;5030740;28;20045;-65
2023/03/19 09:20:57;;;;;;;7.85;4.85;;;10.90;99.90;;;;;;5032157;28;20087;-66
2023/03/19 09:23:23;;;;;;;8.85;4.97;;;11.20;99.90;;;;;;5030123;28;20045;-65
2023/03/19 09:25:49;;;;;;;7.50;4.40;;;11.30;99.90;;;;;;5034942;28;20372;-67
2023/03/19 09:28:15;;;;;;;8.52;4.55;;;11.40;99.90;;;;;;5048927;28;20427;-67
2023/03/19 09:30:42;;;;;;;8.23;4.53;;;11.40;99.90;;;;;;5047684;28;20045;-67
2023/03/19 09:33:07;;;;;;;7.82;4.07;;;11.50;99.90;;;;;;5045843;28;20053;-67
2023/03/19 09:35:33;;;;;;;8.25;4.70;;;11.60;99.90;;;;;;5050225;28;20048;-66
2023/03/19 09:38:00;;;;;;;7.50;4.38;;;11.60;99.90;;;;;;5031318;28;20129;-67
2023/03/19 09:40:36;;;;;;;6.88;4.15;;;11.50;99.90;;;;;;5033190;28;20045;-66
2023/03/19 09:43:39;;;;;;;8.75;4.45;;;11.70;99.90;;;;;;5038057;28;20045;-67
2023/03/19 09:46:15;;;;;;;7.43;3.90;;;11.70;99.90;;;;;;5034447;28;20588;-67
2023/03/19 09:48:52;;;;;;;6.80;4.53;;;11.60;99.90;;;;;;5031165;28;20044;-66
2023/03/19 09:51:24;;;;;;;7.97;4.28;;;11.60;99.90;;;;;;5042158;28;20041;-66
2023/03/19 09:53:59;;;;;;;8.50;4.70;;;11.80;99.90;;;;;;5024108;28;20354;-66
2023/03/19 09:56:26;;;;;;;7.93;4.53;;;12.00;99.90;;;;;;5045761;28;20094;-67
2023/03/19 09:58:52;;;;;;;8.82;5.15;;;12.20;99.90;;;;;;5045087;28;20049;-66
2023/03/19 10:01:34;;;;;;;7.63;4.57;;;12.30;99.90;;;;;;5039104;28;20394;-67
2023/03/19 10:04:22;;;;;;;7.25;4.38;;;12.40;99.90;;;;;;5034257;28;20773;-66
2023/03/19 10:06:54;;;;;;;7.28;3.80;;;12.40;99.90;;;;;;5014411;28;20429;-66
2023/03/19 10:09:36;;;;;;;5.78;3.97;;;12.40;99.90;;;;;;5030431;28;20129;-65
2023/03/19 10:12:23;;;;;;;6.72;3.70;;;12.60;99.90;;;;;;5033502;28;20111;-68
2023/03/19 10:14:59;;;;;;;6.68;3.65;;;12.70;99.90;;;;;;5030279;28;20084;-68
2023/03/19 10:17:33;;;;;;;5.13;3.60;;;12.80;99.90;;;;;;5045270;28;20045;-66
2023/03/19 10:20:05;;;;;;;5.22;3.75;;;13.10;99.90;;;;;;5033868;28;20048;-67
2023/03/19 10:22:52;;;;;;;6.63;4.03;;;13.30;99.90;;;;;;5031243;28;20037;-67
2023/03/19 10:25:24;;;;;;;6.65;3.55;;;13.00;99.90;;;;;;5040381;28;20112;-67
2023/03/19 10:27:57;;;;;;;5.68;3.45;;;13.00;99.90;;;;;;5034780;28;20432;-67
2023/03/19 10:30:24;;;;;;;6.88;4.10;;;13.10;99.90;;;;;;5031922;28;20037;-66
2023/03/19 10:33:02;;;;;;;5.10;3.90;;;13.20;99.90;;;;;;5035129;28;20090;-66
2023/03/19 10:35:53;;;;;;;5.45;3.50;;;13.10;99.90;;;;;;5036317;28;20049;-68
2023/03/19 10:38:21;;;;;;;6.18;4.50;;;13.30;99.90;;;;;;5037487;28;20791;-67
2023/03/19 10:41:22;;;;;;;5.25;3.45;;;13.20;99.90;;;;;;5036758;28;20480;-68
2023/03/19 10:43:57;;;;;;;5.32;2.70;;;13.10;99.90;;;;;;5037505;28;20164;-68
2023/03/19 10:46:23;;;;;;;4.57;3.15;;;13.20;99.90;;;;;;5029540;28;20124;-69
2023/03/19 10:48:48;;;;;;;4.65;3.65;;;13.20;99.90;;;;;;5014258;28;21694;-68
2023/03/19 10:51:25;;;;;;;4.88;3.42;;;13.00;99.90;;;;;;5036104;28;21692;-68
2023/03/19 10:53:55;;;;;;;6.00;3.25;;;13.20;99.90;;;;;;5039077;28;20044;-67
2023/03/19 10:56:28;;;;;;;6.20;3.50;;;13.50;99.90;;;;;;5033879;28;20049;-68
2023/03/19 10:59:05;;;;;;;5.10;3.10;;;13.60;99.90;;;;;;5036707;28;20073;-68
2023/03/19 11:01:37;;;;;;;5.47;3.15;;;13.60;99.90;;;;;;5032763;28;20598;-67
2023/03/19 11:04:25;;;;;;;4.85;3.25;;;13.70;99.90;;;;;;5020305;28;20087;-68
2023/03/19 11:06:53;;;;;;;5.85;3.65;;;13.60;99.90;;;;;;5041061;28;20465;-69
2023/03/19 11:09:34;;;;;;;5.47;3.38;;;13.60;99.90;;;;;;5033201;28;20078;-69
2023/03/19 11:12:18;;;;;;;5.45;3.30;;;13.40;99.90;;;;;;5035450;28;20040;-68
2023/03/19 11:14:47;;;;;;;5.03;3.72;;;13.40;99.90;;;;;;5042307;28;20065;-69
2023/03/19 11:17:22;;;;;;;8.55;4.28;;;13.50;99.90;;;;;;5034700;28;20037;-68
2023/03/19 11:20:06;;;;;;;7.05;3.60;;;13.60;99.90;;;;;;5045458;28;20049;-68
2023/03/19 11:22:35;;;;;;;8.45;4.32;;;13.60;99.90;;;;;;5044367;28;20409;-67
2023/03/19 11:25:28;;;;;;;6.95;4.10;;;13.60;99.90;;;;;;5046338;28;20741;-69
2023/03/19 11:28:02;;;;;;;6.40;3.92;;;13.60;99.90;;;;;;5027675;28;20045;-70
2023/03/19 11:30:40;;;;;;;6.47;3.70;;;13.80;99.90;;;;;;5048137;28;20037;-70
2023/03/19 11:33:17;;;;;;;6.55;3.60;;;13.90;99.90;;;;;;5049379;28;20496;-68
2023/03/19 11:36:02;;;;;;;5.68;3.78;;;13.90;99.90;;;;;;5037253;28;20041;-68
2023/03/19 11:38:50;;;;;;;6.65;4.25;;;13.90;99.90;;;;;;5037534;28;20045;-70
2023/03/19 11:41:43;;;;;;;8.02;4.65;;;14.00;99.90;;;;;;5033518;28;20057;-68
2023/03/19 11:44:52;;;;;;;5.22;3.47;;;14.00;99.90;;;;;;5043874;28;20048;-68
2023/03/19 11:47:38;;;;;;;6.25;3.92;;;14.10;99.90;;;;;;5034886;28;20042;-68
2023/03/19 11:50:41;;;;;;;6.85;4.05;;;14.20;99.90;;;;;;5013863;28;20087;-68
2023/03/19 11:53:22;;;;;;;5.63;3.83;;;14.30;99.90;;;;;;5034464;28;20634;-68
2023/03/19 11:56:18;;;;;;;6.28;4.03;;;14.50;99.90;;;;;;5016870;28;20385;-69
2023/03/19 11:59:05;;;;;;;7.10;4.53;;;14.60;99.90;;;;;;5047918;28;20037;-69
2023/03/19 12:01:47;;;;;;;7.05;4.40;;;14.90;99.90;;;;;;5044529;28;20431;-67
2023/03/19 12:04:32;;;;;;;7.45;4.47;;;14.80;99.90;;;;;;5041532;28;20045;-68
2023/03/19 12:07:31;;;;;;;7.18;4.05;;;14.80;99.90;;;;;;5047769;28;20087;-68
2023/03/19 12:10:59;;;;;;;7.47;4.75;;;15.00;99.90;;;;;;5021564;28;20089;-69
2023/03/19 12:13:30;;;;;;;6.25;3.78;;;15.20;99.90;;;;;;4954864;28;20481;-69
2023/03/19 12:16:14;;;;;;;6.72;4.00;;;15.60;99.90;;;;;;5044794;28;20041;-68
2023/03/19 12:18:46;;;;;;;8.60;4.68;;;15.80;99.90;;;;;;5040235;28;20036;-68
2023/03/19 12:21:25;;;;;;;8.40;4.25;;;15.60;99.90;;;;;;5042947;28;20084;-67
2023/03/19 12:24:09;;;;;;;7.68;4.68;;;15.40;99.90;;;;;;5046774;28;20051;-68
2023/03/19 12:27:03;;;;;;;7.78;4.78;;;15.40;99.90;;;;;;5042704;28;20084;-70
2023/03/19 12:30:01;;;;;;;8.00;5.05;;;15.20;99.90;;;;;;5014698;28;20390;-69
2023/03/19 12:32:42;;;;;;;7.47;4.95;;;15.30;99.90;;;;;;5049784;28;20469;-68
2023/03/19 12:35:16;;;;;;;7.68;4.82;;;15.30;99.90;;;;;;5050838;28;20045;-69
2023/03/19 12:37:43;;;;;;;7.82;4.40;;;15.40;99.90;;;;;;5035297;28;20044;-68
2023/03/19 12:40:23;;;;;;;7.05;4.50;;;15.20;99.90;;;;;;5038139;28;20036;-70
2023/03/19 12:42:50;;;;;;;;;;;15.10;99.90;;;;;;5035642;28;20036;-70
2023/03/19 12:45:34;;;;;;;8.52;4.30;;;15.00;99.90;;;;;;5048383;28;20357;-69
2023/03/19 12:48:26;;;;;;;7.45;4.13;;;15.10;99.90;;;;;;5032764;28;20048;-68
2023/03/19 12:50:56;;;;;;;6.32;3.95;;;14.80;99.90;;;;;;5044611;28;20680;-68
2023/03/19 12:53:32;;;;;;;6.95;3.70;;;14.90;99.90;;;;;;5037250;28;20450;-69
2023/03/19 12:56:05;;;;;;;5.78;4.15;;;14.80;99.90;;;;;;5033224;28;20037;-69
2023/03/19 12:58:45;;;;;;;7.80;4.20;;;14.70;99.90;;;;;;5033504;28;20090;-68
2023/03/19 13:01:15;;;;;;;6.03;3.75;;;15.40;99.90;;;;;;5044345;28;20628;-68
2023/03/19 13:04:05;;;;;;;7.23;3.97;;;15.70;99.90;;;;;;5043741;28;20111;-68